Time;durP1;ratioP1;P1;durP2;ratioP2;P2;SDS_P1;SDS_P2;PMS_P1;PMS_P2;Temp;Humidity;BMP_temperature;BMP_pressure;BME280_temperature;BME280_humidity;BME280_pressure;Samples;Min_cycle;Max_cycle;Signal;HPM_P1;HPM_P2
2022/09/03 00:01:39;;;;;;;;;15.00;13.50;;;;;15.35;90.26;99646.66;6281297;20;2487787;-59
2022/09/03 00:04:47;;;;;;;;;19.00;14.00;;;;;15.24;91.44;99633.13;6284836;20;2821209;-56
2022/09/03 00:07:34;;;;;;;;;16.67;15.33;;;;;15.14;91.26;99631.19;6282200;20;2823208;-57
2022/09/03 00:10:32;;;;;;;;;18.00;15.50;;;;;14.95;93.19;99630.09;6307537;20;2492025;-60
2022/09/03 00:13:05;;;;;;;;;17.50;15.00;;;;;15.21;92.23;99636.09;6281640;20;2816979;-57
2022/09/03 00:15:36;;;;;;;;;13.00;13.00;;;;;15.19;92.03;99638.06;6281861;20;2489856;-57
2022/09/03 00:18:20;;;;;;;;;15.00;14.00;;;;;15.20;91.47;99639.78;6277884;20;2498306;-59
2022/09/03 00:21:07;;;;;;;;;13.00;13.00;;;;;15.18;91.44;99641.75;6280910;20;3522155;-57
2022/09/03 00:23:41;;;;;;;;;16.33;15.00;;;;;15.38;90.72;99632.88;6284680;20;2825289;-57
2022/09/03 00:26:16;;;;;;;;;15.67;15.67;;;;;15.28;90.96;99637.31;6311859;20;3550221;-55
2022/09/03 00:28:55;;;;;;;;;18.00;14.00;;;;;15.19;90.94;99632.63;6278230;20;2814881;-56
2022/09/03 00:32:02;;;;;;;;;13.67;13.33;;;;;15.10;92.05;99628.84;6275727;20;3526451;-59
2022/09/03 00:34:40;;;;;;;;;16.00;16.00;;;;;15.07;92.45;99629.97;6307417;20;3559605;-58
2022/09/03 00:37:10;;;;;;;;;15.50;15.00;;;;;15.04;91.50;99624.81;6277041;20;2500249;-56
2022/09/03 00:39:42;;;;;;;;;14.00;14.00;;;;;14.95;92.59;99617.44;6283465;20;2808588;-57
2022/09/03 00:43:22;;;;;;;;;15.67;14.00;;;;;15.20;91.04;99618.16;6282971;20;3527305;-56
2022/09/03 00:46:41;;;;;;;;;17.00;15.00;;;;;15.23;90.09;99624.16;6313456;20;3548151;-58
2022/09/03 00:50:14;;;;;;;;;15.00;15.00;;;;;15.22;90.11;99626.97;6276583;20;2812775;-54
2022/09/03 00:53:07;;;;;;;;;14.50;13.00;;;;;15.33;90.12;99630.53;6284085;20;2800784;-60
2022/09/03 00:56:45;;;;;;;;;14.00;14.00;;;;;15.32;90.24;99636.06;6281834;20;3531622;-60
2022/09/03 00:59:57;;;;;;;;;14.00;13.33;;;;;15.42;89.42;99644.28;6278061;20;3535741;-61
2022/09/03 01:03:10;;;;;;;;;12.00;12.00;;;;;15.34;89.21;99642.22;6314631;20;2798278;-60
2022/09/03 01:06:09;;;;;;;;;17.33;16.33;;;;;15.30;89.86;99644.31;6283287;20;2829469;-60
2022/09/03 01:09:02;;;;;;;;;16.33;15.00;;;;;15.22;90.13;99648.63;6309712;20;3552441;-60
2022/09/03 01:11:58;;;;;;;;;16.33;15.00;;;;;15.35;89.41;99654.78;6276489;20;3548727;-60
2022/09/03 01:15:12;;;;;;;;;16.00;16.00;;;;;15.32;89.33;99645.06;6286230;20;2483678;-60
2022/09/03 01:18:25;;;;;;;;;14.00;12.67;;;;;15.19;89.40;99649.72;6278098;20;3528183;-60
2022/09/03 01:21:42;;;;;;;;;15.00;15.00;;;;;15.29;89.50;99650.69;6309955;20;3530458;-60
2022/09/03 01:25:09;;;;;;;;;18.00;16.67;;;;;15.16;90.14;99658.09;6280126;20;3555437;-60
2022/09/03 01:28:55;;;;;;;;;15.33;15.33;;;;;15.07;90.68;99662.41;6278176;20;3538793;-61
2022/09/03 01:31:56;;;;;;;;;18.33;16.00;;;;;15.14;90.70;99660.94;6274808;20;3563768;-60
2022/09/03 01:35:23;;;;;;;;;16.00;14.50;;;;;15.12;90.92;99665.59;6285696;20;2812910;-61
2022/09/03 01:38:33;;;;;;;;;17.00;14.00;;;;;15.02;92.24;99670.03;6278641;20;2816017;-60
2022/09/03 01:44:31;;;;;;;;;21.67;17.33;;;;;15.01;92.03;99667.44;6278427;20;3569202;-61
2022/09/03 01:47:48;;;;;;;;;17.50;17.50;;;;;15.02;92.32;99664.63;6278166;20;2835790;-60
2022/09/03 01:50:43;;;;;;;;;17.00;15.50;;;;;14.86;92.48;99659.59;6280535;20;2827540;-60
2022/09/03 01:54:20;;;;;;;;;18.50;18.50;;;;;14.91;92.82;99661.94;6278301;20;2833606;-60
2022/09/03 01:57:41;;;;;;;;;19.50;17.00;;;;;14.94;93.13;99661.69;6278735;20;2491987;-60
2022/09/03 02:00:19;;;;;;;;;21.00;19.00;;;;;14.91;93.29;99661.94;6279609;20;2487867;-59
2022/09/03 02:02:51;;;;;;;;;15.00;15.00;;;;;15.04;93.15;99670.78;6280763;20;3547254;-60
2022/09/03 02:05:27;;;;;;;;;23.50;19.00;;;;;15.12;91.96;99667.47;6280067;20;2828378;-60
2022/09/03 02:08:05;;;;;;;;;18.00;18.00;;;;;14.89;93.18;99666.59;6276315;20;2496110;-60
2022/09/03 02:10:55;;;;;;;;;17.00;17.00;;;;;14.96;93.00;99667.84;6281534;20;2830471;-60
2022/09/03 02:13:41;;;;;;;;;20.00;17.50;;;;;15.11;92.44;99665.72;6277387;20;2496081;-60
2022/09/03 02:16:25;;;;;;;;;17.00;17.00;;;;;14.93;93.01;99662.69;6275710;20;2496189;-54
2022/09/03 02:19:00;;;;;;;;;20.50;19.00;;;;;14.87;93.81;99665.84;6276649;20;2832542;-50
2022/09/03 02:21:38;;;;;;;;;19.50;18.50;;;;;14.86;94.12;99669.53;6276307;20;2832633;-51
2022/09/03 02:24:08;;;;;;;;;20.00;20.00;;;;;14.85;94.81;99666.00;6278336;20;2848290;-50
2022/09/03 02:26:37;;;;;;;;;18.00;18.00;;;;;15.02;94.19;99664.63;6280387;20;2833627;-52
2022/09/03 02:29:05;;;;;;;;;19.00;19.00;;;;;14.93;93.83;99665.38;6275348;20;2834730;-52
2022/09/03 02:31:34;;;;;;;;;21.00;19.50;;;;;14.93;94.17;99663.53;6276533;20;2844107;-51
2022/09/03 02:34:03;;;;;;;;;18.00;17.33;;;;;14.87;94.49;99666.69;6275915;20;2500302;-54
2022/09/03 02:36:45;;;;;;;;;19.00;16.00;;;;;14.82;93.88;99671.59;6311185;20;3561715;-51
2022/09/03 02:39:16;;;;;;;;;16.67;16.67;;;;;15.06;93.89;99671.53;6310333;20;3571077;-52
2022/09/03 02:41:44;;;;;;;;;21.50;19.50;;;;;15.07;93.36;99673.22;6278412;20;2500313;-49
2022/09/03 02:44:31;;;;;;;;;19.50;18.00;;;;;15.07;92.83;99666.97;6283224;20;2825270;-60
2022/09/03 02:47:06;;;;;;;;;24.50;22.00;;;;;14.97;94.39;99672.25;6281369;20;2839871;-61
2022/09/03 02:49:35;;;;;;;;;22.00;19.00;;;;;14.93;93.82;99662.69;6281546;20;2500268;-60
2022/09/03 02:52:10;;;;;;;;;23.00;18.50;;;;;14.77;94.14;99660.34;6282571;20;2837764;-61
2022/09/03 02:54:40;;;;;;;;;21.00;21.00;;;;;14.82;94.24;99655.38;6281625;20;3574310;-60
2022/09/03 02:57:15;;;;;;;;;16.00;16.00;;;;;15.05;93.53;99667.06;6283159;20;2490309;-60
2022/09/03 02:59:46;;;;;;;;;17.00;17.00;;;;;14.86;94.42;99664.13;6283602;20;2490637;-61
2022/09/03 03:02:15;;;;;;;;;19.00;19.00;;;;;14.86;94.53;99670.41;6283894;20;2831495;-60
2022/09/03 03:04:44;;;;;;;;;21.00;21.00;;;;;14.81;95.23;99672.59;6285236;20;2844004;-62
2022/09/03 03:07:12;;;;;;;;;19.33;19.33;;;;;14.81;95.13;99669.91;6285454;20;3568970;-61
2022/09/03 03:09:41;;;;;;;;;20.00;20.00;;;;;14.78;95.37;99672.00;6283746;20;2835797;-61
2022/09/03 03:12:09;;;;;;;;;22.00;21.50;;;;;14.80;95.72;99673.59;6281152;20;2500295;-61
2022/09/03 03:14:38;;;;;;;;;19.50;19.00;;;;;14.88;94.77;99671.16;6283479;20;2838655;-61
2022/09/03 03:17:06;;;;;;;;;22.00;20.00;;;;;14.82;94.93;99668.91;6284708;20;2829552;-61
2022/09/03 03:19:35;;;;;;;;;21.00;18.00;;;;;14.85;95.00;99668.69;6284089;20;2831520;-61
2022/09/03 03:22:03;;;;;;;;;19.00;18.00;;;;;14.88;94.97;99673.00;6284705;20;2488166;-61
2022/09/03 03:24:32;;;;;;;;;21.00;19.00;;;;;14.81;95.56;99669.06;6282695;20;2834648;-61
2022/09/03 03:26:59;;;;;;;;;19.00;16.50;;;;;14.78;94.72;99672.84;6283157;20;2500538;-61
2022/09/03 03:29:29;;;;;;;;;18.00;16.00;;;;;14.90;94.87;99660.19;6283151;20;2827452;-61
2022/09/03 03:31:56;;;;;;;;;20.50;19.00;;;;;14.91;94.57;99664.63;6283180;20;2500417;-61
2022/09/03 03:34:25;;;;;;;;;18.00;18.00;;;;;15.00;94.18;99672.00;6281886;20;2826447;-61
2022/09/03 03:36:55;;;;;;;;;24.50;23.00;;;;;15.10;93.35;99672.97;6284590;20;2849279;-62
2022/09/03 03:39:22;;;;;;;;;19.50;18.50;;;;;14.95;93.76;99674.19;6283224;20;2500264;-61
2022/09/03 03:41:51;;;;;;;;;19.00;19.00;;;;;14.91;94.41;99679.00;6284020;20;2829633;-61
2022/09/03 03:44:20;;;;;;;;;22.00;20.00;;;;;14.93;94.41;99676.19;6285012;20;2829182;-61
2022/09/03 03:46:48;;;;;;;;;20.00;19.00;;;;;14.98;94.32;99684.78;6282602;20;2833810;-61
2022/09/03 03:49:17;;;;;;;;;21.00;21.00;;;;;14.96;94.26;99681.34;6285197;20;2843008;-61
2022/09/03 03:51:46;;;;;;;;;22.00;21.50;;;;;14.86;94.63;99685.75;6283904;20;2847123;-61
2022/09/03 03:54:15;;;;;;;;;19.00;19.00;;;;;15.10;93.43;99683.78;6283256;20;2835660;-61
2022/09/03 03:56:45;;;;;;;;;22.50;21.00;;;;;14.79;94.97;99679.13;6283346;20;2838796;-61
2022/09/03 03:59:22;;;;;;;;;19.50;19.50;;;;;14.70;95.14;99692.38;6284209;20;2816911;-61
2022/09/03 04:01:54;;;;;;;;;20.50;20.50;;;;;14.79;95.40;99689.94;6283633;20;2841927;-61
2022/09/03 04:04:23;;;;;;;;;24.00;21.00;;;;;14.70;95.55;99692.38;6283120;20;2846077;-61
2022/09/03 04:06:51;;;;;;;;;21.00;20.00;;;;;14.70;95.65;99689.69;6285755;20;3571247;-60
2022/09/03 04:09:20;;;;;;;;;20.00;19.00;;;;;14.74;94.74;99695.69;6312241;20;2844179;-61
2022/09/03 04:11:49;;;;;;;;;26.33;22.00;;;;;14.67;95.62;99697.16;6287095;20;3578369;-61
2022/09/03 04:14:18;;;;;;;;;20.00;19.00;;;;;14.89;95.04;99693.63;6279558;20;2832737;-61
2022/09/03 04:16:46;;;;;;;;;21.00;19.67;;;;;14.76;95.32;99704.53;6285650;20;3567943;-61
2022/09/03 04:19:16;;;;;;;;;22.00;21.00;;;;;14.81;95.34;99702.34;6314882;20;3587737;-61
2022/09/03 04:21:45;;;;;;;;;23.50;21.50;;;;;14.98;93.77;99701.03;6278422;20;2850257;-61
2022/09/03 04:24:14;;;;;;;;;20.00;19.50;;;;;14.83;94.52;99704.94;6280322;20;2846206;-61
2022/09/03 04:26:43;;;;;;;;;19.00;19.00;;;;;14.79;94.88;99707.00;6283259;20;2829447;-61
2022/09/03 04:29:12;;;;;;;;;22.50;22.00;;;;;14.92;94.19;99706.91;6281047;20;2840956;-60
2022/09/03 04:32:51;;;;;;;;;24.00;23.33;;;;;15.17;92.93;99702.25;6282966;20;3580582;-61
2022/09/03 04:34:31;;;;;;;;;22.00;22.00;;;;;15.14;93.30;99712.31;6280822;20;2848196;-61
2022/09/03 04:37:00;;;;;;;;;23.33;23.33;;;;;15.10;93.37;99705.44;6282909;20;2840954;-61
2022/09/03 04:39:29;;;;;;;;;24.67;22.33;;;;;15.28;92.51;99711.22;6317176;20;3581501;-61
2022/09/03 04:41:58;;;;;;;;;22.67;21.67;;;;;15.08;92.67;99706.53;6284840;20;3581487;-61
2022/09/03 04:44:26;;;;;;;;;21.50;20.00;;;;;15.18;92.88;99712.06;6278564;20;2498297;-61
2022/09/03 04:46:55;;;;;;;;;27.00;25.50;;;;;15.23;92.61;99712.56;6283349;20;2870041;-61
2022/09/03 04:49:24;;;;;;;;;22.00;22.00;;;;;15.30;92.15;99711.94;6282545;20;2846144;-61
2022/09/03 04:51:52;;;;;;;;;21.50;21.50;;;;;15.08;92.83;99718.19;6277360;20;2846113;-61
2022/09/03 04:54:21;;;;;;;;;24.00;20.50;;;;;15.27;92.42;99711.31;6282084;20;2846207;-61
2022/09/03 04:56:55;;;;;;;;;22.50;21.50;;;;;15.28;91.63;99711.22;6278599;20;2842985;-47
2022/09/03 04:59:24;;;;;;;;;21.67;21.00;;;;;15.21;92.09;99718.09;6282777;20;2848192;-50
2022/09/03 05:01:55;;;;;;;;;24.00;22.00;;;;;15.34;91.76;99728.78;6311302;20;2834781;-52
2022/09/03 05:04:24;;;;;;;;;23.00;21.00;;;;;15.41;91.16;99730.00;6277132;20;2834672;-53
2022/09/03 05:06:52;;;;;;;;;24.00;22.00;;;;;15.45;91.24;99727.91;6284306;20;3587980;-51
2022/09/03 05:09:21;;;;;;;;;19.67;19.67;;;;;15.51;91.02;99724.72;6281572;20;3572146;-49
2022/09/03 05:11:51;;;;;;;;;22.33;20.67;;;;;15.44;91.07;99724.34;6279099;20;2849324;-52
2022/09/03 05:14:20;;;;;;;;;22.67;22.33;;;;;15.39;91.55;99731.97;6316446;20;3591923;-54
2022/09/03 05:16:49;;;;;;;;;23.67;22.00;;;;;15.61;90.92;99735.63;6282922;20;2846235;-47
2022/09/03 05:19:21;;;;;;;;;26.00;22.50;;;;;15.78;90.26;99727.03;6311338;20;2846153;-49
2022/09/03 05:21:49;;;;;;;;;25.00;22.00;;;;;15.82;89.25;99733.91;6281151;20;3582551;-49
2022/09/03 05:24:18;;;;;;;;;20.67;20.67;;;;;15.85;89.07;99733.69;6275728;20;3594024;-50
2022/09/03 05:26:47;;;;;;;;;31.00;28.00;;;;;15.81;89.52;99721.38;6285714;20;3584589;-53
2022/09/03 05:29:18;;;;;;;;;29.00;28.00;;;;;16.04;88.17;99727.59;6277235;20;3588804;-53
2022/09/03 05:31:47;;;;;;;;;34.33;32.00;;;;;16.04;88.49;99737.56;6285221;20;3593990;-53
2022/09/03 05:34:15;;;;;;;;;28.00;27.33;;;;;16.04;88.38;99737.56;6285637;20;3604415;-53
2022/09/03 05:36:47;;;;;;;;;28.33;23.33;;;;;16.06;88.56;99746.41;6277532;20;3612724;-49
2022/09/03 05:39:16;;;;;;;;;23.33;23.33;;;;;16.07;88.22;99738.16;6310500;20;3579893;-49
2022/09/03 05:41:45;;;;;;;;;27.00;21.00;;;;;16.05;88.24;99737.41;6282104;20;3594030;-50
2022/09/03 05:44:14;;;;;;;;;22.33;20.33;;;;;16.05;88.34;99744.69;6281060;20;2842080;-50
2022/09/03 05:46:43;;;;;;;;;19.50;19.50;;;;;16.08;87.87;99748.00;6311750;20;2840872;-49
2022/09/03 05:49:12;;;;;;;;;21.00;20.00;;;;;16.26;87.23;99751.00;6277735;20;2822250;-54
2022/09/03 05:51:42;;;;;;;;;23.00;21.50;;;;;16.12;87.91;99746.75;6281310;20;2842052;-50
2022/09/03 05:54:11;;;;;;;;;20.00;17.50;;;;;16.22;87.47;99752.28;6278307;20;2837808;-48
2022/09/03 05:56:41;;;;;;;;;25.00;20.50;;;;;16.32;87.19;99753.19;6278242;20;2851318;-55
2022/09/03 05:59:12;;;;;;;;;24.00;20.50;;;;;16.33;86.98;99749.50;6277319;20;2838859;-54
2022/09/03 06:01:45;;;;;;;;;20.50;20.50;;;;;16.46;87.21;99755.59;6279933;20;2837165;-51
2022/09/03 06:04:20;;;;;;;;;24.00;22.00;;;;;16.63;86.13;99750.59;6280485;20;2834691;-53
2022/09/03 06:06:49;;;;;;;;;21.00;19.00;;;;;16.43;86.86;99739.63;6278586;20;2843997;-53
2022/09/03 06:09:21;;;;;;;;;21.33;19.33;;;;;16.71;86.08;99745.38;6280091;20;3570049;-47
2022/09/03 06:11:52;;;;;;;;;21.50;19.50;;;;;16.62;86.43;99738.88;6280536;20;2847150;-52
2022/09/03 06:14:22;;;;;;;;;23.67;21.00;;;;;16.82;85.71;99753.44;6277142;20;2850468;-51
2022/09/03 06:16:51;;;;;;;;;16.00;16.00;;;;;16.87;85.79;99753.91;6309589;20;2823481;-52
2022/09/03 06:19:20;;;;;;;;;20.50;18.50;;;;;16.77;85.39;99746.69;6281777;20;2833665;-50
2022/09/03 06:21:50;;;;;;;;;21.00;20.00;;;;;17.10;85.30;99743.78;6280553;20;2843324;-51
2022/09/03 06:24:26;;;;;;;;;20.33;19.00;;;;;17.49;82.83;99754.81;6315073;20;3578612;-53
2022/09/03 06:26:56;;;;;;;;;18.50;17.50;;;;;17.87;81.58;99752.38;6279267;20;2829414;-49
2022/09/03 06:29:25;;;;;;;;;19.00;17.50;;;;;18.62;78.11;99748.16;6281622;20;2824206;-48
2022/09/03 06:31:55;;;;;;;;;22.00;19.50;;;;;19.87;73.79;99756.09;6280193;20;2846167;-49
2022/09/03 06:34:26;;;;;;;;;23.00;20.00;;;;;23.38;61.86;99762.44;6277660;20;2841017;-51
2022/09/03 06:36:54;;;;;;;;;19.00;16.00;;;;;22.02;64.30;99752.94;6277217;20;2833605;-53
2022/09/03 06:39:24;;;;;;;;;11.00;11.00;;;;;22.44;63.23;99750.16;6277346;20;3526346;-47
2022/09/03 06:41:53;;;;;;;;;21.00;21.00;;;;;24.78;57.36;99764.44;6278100;20;2827318;-47
2022/09/03 06:44:22;;;;;;;;;14.00;14.00;;;;;28.01;48.70;99775.75;6278972;20;2800381;-50
2022/09/03 06:46:52;;;;;;;;;15.00;12.67;;;;;29.00;44.52;99773.47;6292754;20;3526497;-51
2022/09/03 06:49:20;;;;;;;;;15.00;15.00;;;;;28.57;43.89;99777.47;6311433;20;2491985;-53
2022/09/03 06:51:49;;;;;;;;;16.00;15.00;;;;;24.68;51.87;99764.72;6308977;20;3550498;-47
2022/09/03 06:54:18;;;;;;;;;16.50;16.50;;;;;20.68;64.78;99753.34;6277223;20;2827369;-49
2022/09/03 06:56:47;;;;;;;;;19.00;16.67;;;;;20.09;68.51;99752.94;6277895;20;2835667;-53
2022/09/03 06:59:16;;;;;;;;;22.67;20.00;;;;;20.09;69.43;99757.53;6307401;20;3577398;-53
2022/09/03 07:01:45;;;;;;;;;22.50;20.50;;;;;20.31;69.41;99765.25;6277899;20;2833592;-51
2022/09/03 07:04:15;;;;;;;;;23.00;23.00;;;;;20.51;67.58;99759.63;6278755;20;3577366;-50
2022/09/03 07:06:48;;;;;;;;;25.33;23.00;;;;;20.23;68.09;99756.16;6305383;20;2852490;-53
2022/09/03 07:09:18;;;;;;;;;35.33;32.00;;;;;20.76;66.10;99747.97;6308091;20;3601470;-53
2022/09/03 07:11:46;;;;;;;;;36.00;32.33;;;;;20.68;65.43;99756.09;6311402;20;3598134;-48
2022/09/03 07:14:21;;;;;;;;;42.00;32.67;;;;;20.92;64.74;99755.41;6276445;20;3616909;-46
2022/09/03 07:16:50;;;;;;;;;31.00;30.00;;;;;21.46;62.66;99761.59;6277453;20;3586675;-49
2022/09/03 07:19:18;;;;;;;;;27.33;25.33;;;;;20.64;63.12;99760.13;6284161;20;3599185;-51
2022/09/03 07:21:48;;;;;;;;;31.50;26.25;;;;;21.62;62.13;99755.38;6276398;20;3603426;-50
2022/09/03 07:24:20;;;;;;;;;26.67;24.33;;;;;26.81;48.17;99773.22;6308121;20;3592956;-52
2022/09/03 07:26:50;;;;;;;;;28.00;24.33;;;;;27.17;45.76;99775.84;6314578;20;3591886;-50
2022/09/03 07:29:19;;;;;;;;;28.00;25.33;;;;;22.17;59.00;99758.59;6282750;20;3606508;-52
2022/09/03 07:31:50;;;;;;;;;23.67;23.00;;;;;21.91;59.77;99748.66;6288641;20;3585672;-54
2022/09/03 07:34:25;;;;;;;;;26.33;26.33;;;;;21.46;61.44;99752.56;6287143;20;3591944;-54
2022/09/03 07:36:54;;;;;;;;;20.00;20.00;;;;;22.10;60.08;99756.56;6284379;20;3573399;-52
2022/09/03 07:39:23;;;;;;;;;20.67;19.33;;;;;21.89;59.12;99756.16;6286082;20;3565534;-58
2022/09/03 07:41:53;;;;;;;;;23.00;18.67;;;;;22.24;59.46;99748.75;6286862;20;2856628;-51
2022/09/03 07:44:23;;;;;;;;;20.00;17.00;;;;;22.16;58.63;99745.97;6324114;20;3576309;-50
2022/09/03 07:46:52;;;;;;;;;18.00;17.00;;;;;22.71;56.72;99753.59;6285409;20;2834798;-49
2022/09/03 07:49:21;;;;;;;;;18.33;17.00;;;;;22.50;57.00;99759.56;6287839;20;2837866;-49
2022/09/03 07:51:52;;;;;;;;;18.67;16.00;;;;;22.72;56.26;99753.44;6320604;20;3562814;-47
2022/09/03 07:54:24;;;;;;;;;14.33;13.33;;;;;22.85;55.37;99749.28;6282960;20;3531524;-52
2022/09/03 07:56:54;;;;;;;;;20.00;20.00;;;;;22.63;55.58;99754.44;6318529;20;3573419;-50
2022/09/03 07:59:23;;;;;;;;;19.00;19.00;;;;;22.42;56.03;99756.81;6290044;20;3577488;-57
2022/09/03 08:01:53;;;;;;;;;19.00;19.00;;;;;22.71;55.10;99773.59;6287863;20;2831632;-58
2022/09/03 08:04:22;;;;;;;;;21.00;17.33;;;;;22.33;56.88;99762.28;6319518;20;3575326;-57
2022/09/03 08:06:54;;;;;;;;;22.00;20.00;;;;;22.74;55.03;99773.25;6287294;20;2823239;-57
2022/09/03 08:09:23;;;;;;;;;22.00;20.00;;;;;23.02;54.69;99775.69;6287627;20;3581580;-57
2022/09/03 08:11:51;;;;;;;;;20.00;20.00;;;;;22.77;54.34;99767.41;6288564;20;2837811;-55
2022/09/03 08:14:20;;;;;;;;;16.00;16.00;;;;;22.67;56.69;99771.34;6287640;20;3559832;-58
2022/09/03 08:16:49;;;;;;;;;21.00;18.33;;;;;23.28;53.91;99764.50;6286537;20;3572154;-53
2022/09/03 08:19:19;;;;;;;;;23.33;21.67;;;;;23.05;53.80;99767.13;6289112;20;3584690;-54
2022/09/03 08:21:48;;;;;;;;;19.00;19.00;;;;;22.57;55.08;99768.81;6287638;20;3568995;-55
2022/09/03 08:24:20;;;;;;;;;25.33;22.67;;;;;23.59;53.40;99763.72;6289488;20;3589843;-53
2022/09/03 08:26:49;;;;;;;;;23.33;23.33;;;;;23.49;54.05;99771.31;6287704;20;3610639;-53
2022/09/03 08:29:21;;;;;;;;;18.00;17.00;;;;;24.07;50.62;99770.06;6287253;20;2836157;-53
2022/09/03 08:31:50;;;;;;;;;12.00;12.00;;;;;23.89;50.03;99762.09;6320559;20;2782624;-54
2022/09/03 08:34:19;;;;;;;;;24.33;17.00;;;;;23.39;52.46;99760.53;6316224;20;3606493;-56
2022/09/03 08:36:49;;;;;;;;;20.00;17.00;;;;;24.19;50.93;99762.28;6284483;20;2834644;-58
2022/09/03 08:39:18;;;;;;;;;21.00;20.00;;;;;23.59;52.33;99755.50;6285535;20;2826664;-56
2022/09/03 08:41:50;;;;;;;;;18.00;15.33;;;;;23.42;52.82;99761.03;6288583;20;3550429;-54
2022/09/03 08:44:46;;;;;;;;;18.00;16.33;;;;;23.62;52.14;99763.38;6318102;20;3559748;-54
2022/09/03 08:47:33;;;;;;;;;9.80;8.60;;;;;23.98;51.64;99771.13;6312610;20;2764944;-56
2022/09/03 08:50:28;;;;;;;;;18.00;18.00;;;;;23.82;52.45;99769.31;6284939;20;2837794;-54
2022/09/03 08:53:10;;;;;;;;;19.00;16.00;;;;;23.11;54.42;99768.28;6314734;20;3559623;-53
2022/09/03 08:56:33;;;;;;;;;18.33;15.33;;;;;23.53;52.81;99768.03;6279337;20;3550219;-53
2022/09/03 08:59:03;;;;;;;;;18.00;14.00;;;;;23.87;51.45;99762.25;6316686;20;3430482;-57
2022/09/03 09:01:41;;;;;;;;;15.67;15.00;;;;;24.61;50.79;99764.59;6316040;20;2483632;-53
2022/09/03 09:05:04;;;;;;;;;12.33;12.33;;;;;23.97;50.65;99766.69;6316184;20;2483689;-53
2022/09/03 09:08:20;;;;;;;;;18.67;16.00;;;;;24.71;50.26;99767.94;6314025;20;2483597;-57
2022/09/03 09:11:14;;;;;;;;;13.00;13.00;;;;;24.41;50.21;99766.06;6312984;20;3540880;-56
2022/09/03 09:13:55;;;;;;;;;13.33;13.33;;;;;24.01;50.51;99759.81;6284445;20;2483646;-57
2022/09/03 09:16:59;;;;;;;;;17.00;13.67;;;;;24.55;50.33;99761.75;6314144;20;2487806;-55
2022/09/03 09:20:08;;;;;;;;;12.33;11.00;;;;;25.28;47.81;99763.00;6312580;20;3512886;-56
2022/09/03 09:22:58;;;;;;;;;12.67;12.00;;;;;24.80;49.94;99755.00;6279602;20;2489984;-56
2022/09/03 09:25:29;;;;;;;;;17.00;14.00;;;;;23.35;51.43;99749.06;6314051;20;3550213;-56
2022/09/03 09:28:16;;;;;;;;;17.00;14.00;;;;;24.11;50.09;99752.19;6282307;20;3539824;-56
2022/09/03 09:30:53;;;;;;;;;12.67;11.00;;;;;24.79;48.06;99752.44;6283532;20;3494159;-50
2022/09/03 09:33:28;;;;;;;;;11.67;11.67;;;;;25.00;47.76;99744.34;6315466;20;2483645;-47
2022/09/03 09:36:14;;;;;;;;;19.67;13.67;;;;;25.09;48.14;99753.34;6311110;20;3558544;-47
2022/09/03 09:38:46;;;;;;;;;10.67;9.67;;;;;25.24;47.89;99750.66;6288145;20;2784682;-50
2022/09/03 09:41:18;;;;;;;;;15.00;15.00;;;;;25.23;47.98;99740.72;6315157;20;3412891;-52
2022/09/03 09:44:00;;;;;;;;;13.67;13.67;;;;;24.98;48.86;99743.66;6312750;20;3533666;-50
2022/09/03 09:46:39;;;;;;;;;13.00;13.00;;;;;24.99;48.15;99748.16;6281137;20;3528460;-49
2022/09/03 09:49:38;;;;;;;;;17.00;14.00;;;;;23.48;50.43;99753.16;6280632;20;3532647;-51
2022/09/03 09:52:13;;;;;;;;;16.00;13.00;;;;;24.29;49.79;99747.28;6280859;20;2483669;-46
2022/09/03 09:54:45;;;;;;;;;12.00;11.00;;;;;24.93;47.16;99744.22;6313280;20;3511727;-46
2022/09/03 09:57:25;;;;;;;;;10.00;10.00;;;;;25.49;46.33;99753.97;6310886;20;3513827;-52
2022/09/03 10:00:16;;;;;;;;;12.33;12.33;;;;;24.52;48.80;99749.22;6284879;20;3541957;-49
2022/09/03 10:02:53;;;;;;;;;16.33;15.00;;;;;24.47;49.83;99746.19;6284096;20;3542030;-48
2022/09/03 10:05:32;;;;;;;;;11.00;11.00;;;;;23.68;50.69;99748.97;6283837;20;3522151;-54
2022/09/03 10:08:18;;;;;;;;;12.33;11.67;;;;;24.49;48.63;99749.59;6284997;20;3514846;-50
2022/09/03 10:10:50;;;;;;;;;10.67;10.67;;;;;24.30;48.87;99754.50;6314578;20;3507518;-54
2022/09/03 10:13:29;;;;;;;;;0.00;0.00;;;;;25.21;47.43;99751.06;6300430;20;1778876;-50
2022/09/03 10:16:19;;;;;;;;;15.00;13.67;;;;;25.30;47.69;99756.25;6310882;20;3541912;-53
2022/09/03 10:19:22;;;;;;;;;15.00;14.33;;;;;25.66;47.31;99749.16;6314105;20;3539790;-48
2022/09/03 10:21:56;;;;;;;;;16.33;14.00;;;;;25.27;46.84;99750.28;6310103;20;3546099;-49
2022/09/03 10:25:04;;;;;;;;;7.33;7.00;;;;;24.95;47.08;99752.28;6280984;20;2749318;-52
2022/09/03 10:27:36;;;;;;;;;14.00;14.00;;;;;25.28;46.50;99752.88;6309662;20;3537811;-47
2022/09/03 10:30:09;;;;;;;;;15.67;12.67;;;;;24.28;49.47;99748.34;6310233;20;3515930;-52
2022/09/03 10:32:58;;;;;;;;;13.00;11.33;;;;;25.13;47.35;99740.97;6314613;20;2789824;-58
2022/09/03 10:35:38;;;;;;;;;15.33;9.33;;;;;24.13;48.61;99747.41;6309686;20;3516944;-59
2022/09/03 10:38:28;;;;;;;;;12.00;10.00;;;;;24.27;48.64;99741.13;6323012;20;1858654;-59
2022/09/03 10:42:09;;;;;;;;;14.33;13.67;;;;;23.88;49.88;99744.78;6311295;20;3531547;-61
2022/09/03 10:45:15;;;;;;;;;13.33;12.00;;;;;24.74;48.62;99745.59;6283326;20;3531566;-60
2022/09/03 10:48:09;;;;;;;;;14.00;12.00;;;;;23.73;50.64;99738.34;6276338;20;3511913;-60
2022/09/03 10:50:57;;;;;;;;;12.00;11.33;;;;;25.04;47.98;99740.19;6315667;20;3531462;-60
2022/09/03 10:54:10;;;;;;;;;13.33;13.33;;;;;25.51;45.97;99744.50;6311528;20;3520028;-60
2022/09/03 10:57:02;;;;;;;;;10.33;10.33;;;;;24.79;46.38;99741.47;6274610;20;3503347;-59
2022/09/03 11:00:13;;;;;;;;;13.67;13.00;;;;;24.36;48.73;99741.09;6310638;20;2483614;-59
2022/09/03 11:03:13;;;;;;;;;9.33;9.00;;;;;24.27;49.94;99738.38;6316567;20;2491902;-59
2022/09/03 11:05:58;;;;;;;;;15.00;12.00;;;;;24.73;47.80;99737.56;6306602;20;3523196;-57
2022/09/03 11:08:50;;;;;;;;;11.00;11.00;;;;;23.86;49.53;99729.56;6290154;20;2489878;-59
2022/09/03 11:11:35;;;;;;;;;12.33;12.33;;;;;23.80;50.00;99727.50;6306344;20;2483594;-59
2022/09/03 11:14:12;;;;;;;;;15.33;13.33;;;;;23.65;51.02;99724.66;6314346;20;3527449;-59
2022/09/03 11:17:07;;;;;;;;;13.33;12.00;;;;;23.60;50.63;99714.22;6285052;20;2492074;-60
2022/09/03 11:20:15;;;;;;;;;15.00;13.33;;;;;24.28;48.75;99712.66;6316883;20;3536709;-61
2022/09/03 11:22:47;;;;;;;;;15.67;11.00;;;;;24.82;49.11;99717.22;6282842;20;3523264;-61
2022/09/03 11:25:24;;;;;;;;;12.00;9.33;;;;;25.29;46.13;99716.06;6288913;20;2778398;-61
2022/09/03 11:28:47;;;;;;;;;13.67;12.67;;;;;24.19;47.75;99712.88;6314060;20;2483757;-60
2022/09/03 11:31:57;;;;;;;;;11.67;11.67;;;;;24.35;48.19;99712.75;6318763;20;3521190;-59
2022/09/03 11:34:32;;;;;;;;;12.00;11.00;;;;;25.66;45.89;99728.00;6322016;20;2791959;-55
2022/09/03 11:37:29;;;;;;;;;11.00;11.00;;;;;25.18;45.44;99724.81;6311327;20;3512726;-55
2022/09/03 11:40:13;;;;;;;;;12.33;11.00;;;;;25.93;43.86;99728.38;6283707;20;3528842;-57
2022/09/03 11:42:44;;;;;;;;;13.00;11.67;;;;;26.74;42.27;99729.06;6320277;20;3521090;-53
2022/09/03 11:45:37;;;;;;;;;11.00;11.00;;;;;25.66;44.16;99730.75;6315251;20;3522121;-57
2022/09/03 11:48:39;;;;;;;;;10.67;10.67;;;;;24.95;44.45;99724.81;6288327;20;2792347;-55
2022/09/03 11:51:40;;;;;;;;;11.33;10.00;;;;;25.54;44.77;99713.91;6316405;20;3514909;-55
2022/09/03 11:54:22;;;;;;;;;12.33;11.00;;;;;26.23;44.12;99718.16;6287855;20;2789898;-57
2022/09/03 11:57:21;;;;;;;;;8.33;8.33;;;;;26.04;43.74;99720.50;6314441;20;3463963;-56
2022/09/03 11:59:49;;;;;;;;;14.67;10.00;;;;;26.21;43.54;99720.25;6313146;20;3513889;-55
2022/09/03 12:02:29;;;;;;;;;8.25;8.25;;;;;26.82;42.34;99723.41;6364888;20;3465858;-53